Terminal Aerodrome Forecast
Issued by NWS

Home | Current Version | Previous Version | Text Only | Print | Product List | Glossary On
Versions: 1 2 3 4 5 6 7 8 9 10 11 12 13
000
FTUS45 KABQ 231700
TAFLVS
TAF
KLVS 231723Z 2318/2418 24011G21KT P6SM FEW060
     FM231900 23014G24KT P6SM SCT070
     FM240200 23009KT P6SM SKC
     FM241700 20012KT P6SM FEW070=

USA.gov is the U.S. government's official web portal to all federal, state and local government web resources and services.